Time;durP1;ratioP1;P1;durP2;ratioP2;P2;SDS_P1;SDS_P2;PMS_P1;PMS_P2;Temp;Humidity;BMP_temperature;BMP_pressure;BME280_temperature;BME280_humidity;BME280_pressure;Samples;Min_cycle;Max_cycle;Signal;HPM_P1;HPM_P2
2022/06/22 00:01:21;;;;;;;2.50;1.90;;;;;;;11.77;87.51;98537.87;1759303;81;21508;-70
2022/06/22 00:03:52;;;;;;;3.20;1.37;;;;;;;11.73;87.77;98529.34;1759089;81;21107;-70
2022/06/22 00:06:39;;;;;;;3.47;1.65;;;;;;;11.72;88.19;98526.80;1759099;81;21049;-70
2022/06/22 00:09:06;;;;;;;3.65;1.72;;;;;;;11.72;88.65;98522.84;1758982;81;21575;-70
2022/06/22 00:11:33;;;;;;;5.75;1.30;;;;;;;11.69;88.23;98527.02;1758958;81;21063;-70
2022/06/22 00:14:02;;;;;;;3.47;1.45;;;;;;;11.66;88.49;98523.25;1759151;81;21215;-70
2022/06/22 00:16:33;;;;;;;5.03;1.60;;;;;;;11.65;89.29;98526.84;1758952;81;21103;-71
2022/06/22 00:19:00;;;;;;;3.80;1.30;;;;;;;11.65;89.31;98533.44;1759472;81;21560;-71
2022/06/22 00:21:35;;;;;;;4.75;1.70;;;;;;;11.69;89.12;98527.02;1758866;81;21076;-70
2022/06/22 00:24:17;;;;;;;2.45;2.00;;;;;;;11.73;89.24;98524.08;1759373;81;21068;-70
2022/06/22 00:26:48;;;;;;;2.62;1.87;;;;;;;11.80;89.51;98528.91;1754473;81;21171;-68
2022/06/22 00:29:20;;;;;;;2.37;1.52;;;;;;;11.86;89.98;98514.00;1732005;81;21095;-70
2022/06/22 00:31:55;;;;;;;5.67;1.47;;;;;;;11.93;89.16;98504.27;1755853;81;21045;-71
2022/06/22 00:34:28;;;;;;;5.22;1.77;;;;;;;12.00;88.93;98495.94;1755806;81;21049;-69
2022/06/22 00:37:30;;;;;;;1.30;1.20;;;;;;;12.05;88.37;98492.50;1755956;81;21049;-69
2022/06/22 00:40:05;;;;;;;1.62;1.02;;;;;;;12.12;87.36;98491.13;1756112;81;21116;-71
2022/06/22 00:42:41;;;;;;;4.50;1.50;;;;;;;12.18;86.94;98483.63;1755365;81;21021;-70
2022/06/22 00:45:11;;;;;;;4.90;1.47;;;;;;;12.25;86.85;98477.94;1774645;79;21061;-69
2022/06/22 00:48:01;;;;;;;1.10;1.00;;;;;;;12.30;86.91;98471.37;1768000;81;21104;-70
2022/06/22 00:50:50;;;;;;;1.80;1.17;;;;;;;12.34;86.76;98466.24;1764461;81;21085;-71
2022/06/22 00:53:38;;;;;;;1.62;0.90;;;;;;;12.36;87.33;98470.94;1737330;82;21280;-71
2022/06/22 00:56:38;;;;;;;2.75;1.10;;;;;;;12.36;85.82;98464.34;1751138;81;21080;-70
2022/06/22 00:59:25;;;;;;;3.65;1.20;;;;;;;12.36;86.09;98461.70;1751883;81;21085;-69
2022/06/22 01:02:03;;;;;;;2.33;1.02;;;;;;;12.36;86.66;98463.51;1752268;81;21070;-70
2022/06/22 01:04:41;;;;;;;1.75;1.05;;;;;;;12.35;87.22;98462.67;1750519;81;21494;-70
2022/06/22 01:07:14;;;;;;;5.90;1.37;;;;;;;12.35;86.54;98459.16;1734010;82;21151;-72
2022/06/22 01:10:01;;;;;;;3.08;1.17;;;;;;;12.34;86.99;98457.48;1733764;82;21129;-70
2022/06/22 01:12:40;;;;;;;1.67;1.12;;;;;;;12.34;87.02;98455.69;1728053;82;21074;-69
2022/06/22 01:15:18;;;;;;;4.12;1.20;;;;;;;12.33;87.08;98451.38;1733869;82;21053;-73
2022/06/22 01:18:03;;;;;;;3.67;1.00;;;;;;;12.30;86.97;98448.93;1733720;82;21109;-70
2022/06/22 01:20:56;;;;;;;1.57;0.98;;;;;;;12.30;87.74;98446.29;1733817;82;21554;-71
2022/06/22 01:23:57;;;;;;;1.47;1.10;;;;;;;12.29;88.04;98441.98;1733891;82;21070;-70
2022/06/22 01:26:34;;;;;;;2.33;1.20;;;;;;;12.27;88.05;98439.92;1734387;82;21707;-71
2022/06/22 01:29:09;;;;;;;1.95;1.07;;;;;;;12.28;87.64;98441.59;1734041;82;21667;-71
2022/06/22 01:31:36;;;;;;;3.12;1.20;;;;;;;12.30;87.50;98438.37;1733697;82;21086;-70
2022/06/22 01:34:02;;;;;;;1.72;1.12;;;;;;;12.30;87.82;98435.73;1733984;82;21147;-69
2022/06/22 01:36:32;;;;;;;5.78;1.42;;;;;;;12.33;88.37;98434.67;1733809;82;21120;-69
2022/06/22 01:38:59;;;;;;;1.37;0.98;;;;;;;12.35;88.32;98433.63;1733772;82;21764;-69
2022/06/22 01:41:37;;;;;;;4.15;1.30;;;;;;;12.38;88.75;98433.41;1733407;82;21034;-69
2022/06/22 01:44:21;;;;;;;2.55;0.98;;;;;;;12.43;88.29;98434.88;1733823;82;21668;-69
2022/06/22 01:47:11;;;;;;;2.30;1.20;;;;;;;12.43;87.75;98430.92;1704600;84;21251;-70
2022/06/22 01:50:06;;;;;;;2.47;1.20;;;;;;;12.43;88.02;98426.95;1704584;84;21121;-69
2022/06/22 01:52:54;;;;;;;3.40;1.30;;;;;;;12.47;87.70;98432.36;1704707;84;21133;-70
2022/06/22 01:55:42;;;;;;;2.58;1.22;;;;;;;12.48;87.96;98431.42;1704463;84;21069;-70
2022/06/22 01:58:23;;;;;;;1.92;0.95;;;;;;;12.51;88.99;98433.83;1704041;84;21065;-70
2022/06/22 02:00:58;;;;;;;1.20;1.10;;;;;;;12.50;88.62;98434.31;1704428;84;21096;-70
2022/06/22 02:03:34;;;;;;;1.95;1.00;;;;;;;12.52;88.71;98437.70;1703976;84;21586;-71
2022/06/22 02:09:06;;;;;;;1.72;1.10;;;;;;;12.56;88.64;98441.80;1704748;84;21105;-70
2022/06/22 02:11:41;;;;;;;2.37;1.10;;;;;;;12.60;88.57;98437.13;1704226;84;21069;-70
2022/06/22 02:14:16;;;;;;;2.12;0.90;;;;;;;12.62;88.74;98437.87;1692387;84;21603;-70
2022/06/22 02:16:59;;;;;;;5.58;1.05;;;;;;;12.65;88.94;98440.27;1704271;84;21093;-69
2022/06/22 02:19:30;;;;;;;2.55;1.10;;;;;;;12.65;88.88;98432.35;1704560;84;21030;-69
2022/06/22 02:21:58;;;;;;;2.77;0.90;;;;;;;12.68;88.64;98445.36;1704795;84;21602;-70
2022/06/22 02:24:35;;;;;;;1.52;0.90;;;;;;;12.70;89.07;98443.45;1704983;84;21095;-70
2022/06/22 02:27:16;;;;;;;1.32;0.95;;;;;;;12.71;88.53;98446.92;1704571;84;21606;-71
2022/06/22 02:29:48;;;;;;;1.60;0.85;;;;;;;12.72;88.33;98440.22;1703563;83;21066;-69
2022/06/22 02:32:19;;;;;;;1.37;0.90;;;;;;;12.71;88.39;98437.20;1693175;84;21074;-69
2022/06/22 02:34:49;;;;;;;2.47;0.93;;;;;;;12.72;88.37;98439.36;1693644;84;21681;-70
2022/06/22 02:37:17;;;;;;;2.45;0.75;;;;;;;12.71;88.46;98441.16;1693420;84;21638;-71
2022/06/22 02:39:49;;;;;;;1.45;1.00;;;;;;;12.71;88.52;98437.20;1693528;84;21093;-69
2022/06/22 02:44:33;;;;;;;1.98;0.93;;;;;;;12.73;89.12;98443.22;1796777;79;22707;-70
2022/06/22 02:47:21;;;;;;;3.15;1.20;;;;;;;12.69;88.48;98441.75;1761872;81;20978;-71
2022/06/22 02:50:00;;;;;;;1.85;1.00;;;;;;;12.72;88.68;98436.72;1761642;81;21167;-70
2022/06/22 02:52:32;;;;;;;1.47;1.02;;;;;;;12.74;88.84;98436.97;1762068;81;20976;-70
2022/06/22 02:54:59;;;;;;;3.05;0.90;;;;;;;12.78;88.69;98441.08;1758782;81;21037;-70
2022/06/22 02:57:34;;;;;;;2.30;0.88;;;;;;;12.82;88.51;98428.50;1743579;81;21078;-70
2022/06/22 03:00:01;;;;;;;2.50;0.70;;;;;;;12.84;88.16;98431.01;1762125;81;21535;-70
2022/06/22 03:02:29;;;;;;;3.15;1.07;;;;;;;12.86;87.91;98429.97;1744569;81;21147;-70
2022/06/22 03:04:57;;;;;;;1.92;0.80;;;;;;;12.84;87.93;98418.67;1761860;81;21012;-69
2022/06/22 03:07:24;;;;;;;3.67;1.10;;;;;;;12.85;88.13;98416.86;1761941;81;21578;-70
2022/06/22 03:09:51;;;;;;;0.95;0.85;;;;;;;12.88;88.48;98415.30;1761796;81;21034;-69
2022/06/22 03:12:18;;;;;;;1.35;0.80;;;;;;;12.90;88.57;98420.00;1761594;81;21766;-71
2022/06/22 03:14:59;;;;;;;5.45;1.22;;;;;;;12.90;88.74;98414.72;1750004;81;21957;-69
2022/06/22 03:17:35;;;;;;;;;;;;;;;12.92;88.72;98419.41;1733291;82;21173;-70
2022/06/22 03:20:07;;;;;;;4.30;1.40;;;;;;;12.99;89.17;98424.61;1731748;82;20177;-70
2022/06/22 03:22:45;;;;;;;3.42;0.90;;;;;;;13.08;88.71;98417.31;1731524;82;21617;-69
2022/06/22 03:25:47;;;;;;;1.12;0.75;;;;;;;13.15;88.45;98407.97;1731560;82;20975;-71
2022/06/22 03:28:22;;;;;;;2.72;0.98;;;;;;;13.23;87.81;98406.92;1718934;81;21583;-69
2022/06/22 03:30:56;;;;;;;2.90;0.80;;;;;;;13.30;87.38;98418.41;1730087;82;21710;-70
2022/06/22 03:33:34;;;;;;;1.52;0.80;;;;;;;13.35;87.38;98418.89;1731594;82;21043;-69
2022/06/22 03:36:24;;;;;;;2.17;1.25;;;;;;;13.48;87.46;98417.00;1732082;82;21055;-69
2022/06/22 03:38:56;;;;;;;2.77;1.17;;;;;;;13.63;87.23;98421.10;1731939;82;21031;-70
2022/06/22 03:41:27;;;;;;;2.30;0.90;;;;;;;13.83;86.61;98419.57;1715241;82;21975;-71
2022/06/22 03:44:06;;;;;;;2.20;0.90;;;;;;;13.95;85.96;98425.70;1727007;82;21011;-71
2022/06/22 03:46:52;;;;;;;2.00;0.70;;;;;;;14.05;85.21;98427.98;1721745;83;21061;-70
2022/06/22 03:49:32;;;;;;;1.57;0.90;;;;;;;14.13;84.21;98431.86;1721349;83;21117;-70
2022/06/22 03:52:11;;;;;;;2.58;1.00;;;;;;;14.18;84.25;98430.52;1721658;82;21662;-70
2022/06/22 03:54:47;;;;;;;2.92;1.00;;;;;;;14.19;83.68;98429.55;1721094;83;21250;-69
2022/06/22 03:57:17;;;;;;;3.17;0.80;;;;;;;14.15;83.97;98432.55;1720771;83;21077;-69
2022/06/22 03:59:45;;;;;;;3.15;0.82;;;;;;;14.16;84.33;98434.25;1721064;82;21018;-70
2022/06/22 04:02:12;;;;;;;2.25;0.80;;;;;;;14.16;84.17;98439.55;1721005;83;21065;-70
2022/06/22 04:04:38;;;;;;;1.50;0.80;;;;;;;14.16;84.37;98435.58;1720725;83;21104;-70
2022/06/22 04:07:05;;;;;;;2.25;0.80;;;;;;;14.11;84.33;98433.78;1720621;82;21073;-71
2022/06/22 04:09:33;;;;;;;1.82;0.90;;;;;;;14.08;84.64;98442.81;1720298;83;21105;-70
2022/06/22 04:12:13;;;;;;;1.55;0.90;;;;;;;14.01;85.10;98434.50;1720831;82;21589;-72
2022/06/22 04:14:44;;;;;;;;;;;;;;;13.97;85.15;98434.86;1723171;82;21601;-70
2022/06/22 04:17:22;;;;;;;3.10;0.72;;;;;;;13.94;85.40;98433.76;1720831;83;20237;-70
2022/06/22 04:19:57;;;;;;;2.50;1.10;;;;;;;13.95;85.75;98437.62;1681794;83;21090;-71
2022/06/22 04:22:27;;;;;;;3.83;1.10;;;;;;;13.92;85.89;98437.87;1720761;82;21101;-70
2022/06/22 04:25:18;;;;;;;2.60;1.25;;;;;;;13.85;86.05;98434.02;1720970;82;21584;-70
2022/06/22 04:27:48;;;;;;;2.02;1.00;;;;;;;13.77;86.52;98439.05;1720374;82;21097;-70
2022/06/22 04:30:24;;;;;;;1.40;1.05;;;;;;;13.76;86.97;98440.02;1720348;82;21061;-70
2022/06/22 04:33:08;;;;;;;5.20;1.27;;;;;;;13.81;87.43;98432.56;1720737;83;21138;-71
2022/06/22 04:35:46;;;;;;;2.47;1.20;;;;;;;13.85;88.93;98440.63;1720724;83;21038;-71
2022/06/22 04:38:30;;;;;;;4.58;1.60;;;;;;;13.87;90.70;98443.97;1690082;83;21049;-71
2022/06/22 04:41:02;;;;;;;2.35;1.00;;;;;;;13.81;92.51;98446.63;1720870;83;21038;-71
2022/06/22 04:43:29;;;;;;;1.87;1.45;;;;;;;13.77;93.31;98450.95;1718064;82;21058;-70
2022/06/22 04:45:56;;;;;;;5.95;1.20;;;;;;;13.76;94.36;98451.92;1689767;83;21101;-71
2022/06/22 04:48:29;;;;;;;2.05;1.30;;;;;;;13.76;95.90;98461.19;1678527;85;21864;-71
2022/06/22 04:51:00;;;;;;;1.65;1.50;;;;;;;13.77;96.59;98462.86;1646102;87;21045;-72
2022/06/22 04:53:45;;;;;;;4.53;1.80;;;;;;;13.60;97.36;98466.31;1645988;87;21038;-72
2022/06/22 04:56:14;;;;;;;3.67;1.75;;;;;;;13.50;98.62;98469.27;1661353;85;21029;-71
2022/06/22 04:58:51;;;;;;;3.40;2.02;;;;;;;13.39;100.00;98466.63;1676973;85;21112;-71
2022/06/22 05:01:23;;;;;;;3.98;1.90;;;;;;;13.21;100.00;98469.63;1705750;83;21055;-70
2022/06/22 05:03:53;;;;;;;3.52;2.15;;;;;;;13.07;100.00;98469.81;1707139;83;21487;-71
2022/06/22 05:06:25;;;;;;;3.17;1.90;;;;;;;12.98;100.00;98471.81;1678765;85;21001;-70
2022/06/22 05:09:00;;;;;;;3.12;2.15;;;;;;;12.90;100.00;98470.20;1713332;83;21056;-70
2022/06/22 05:11:41;;;;;;;3.40;1.82;;;;;;;12.84;100.00;98473.28;1713071;83;21991;-71
2022/06/22 05:14:27;;;;;;;4.83;1.90;;;;;;;12.76;100.00;98471.20;1678426;84;21526;-70
2022/06/22 05:16:58;;;;;;;3.98;1.85;;;;;;;12.68;100.00;98474.41;1713107;83;21053;-71
2022/06/22 05:19:33;;;;;;;4.20;1.90;;;;;;;12.68;100.00;98471.77;1678575;85;21032;-71
2022/06/22 05:22:00;;;;;;;3.22;1.60;;;;;;;12.67;100.00;98477.15;1713004;83;21042;-71
2022/06/22 05:24:34;;;;;;;3.47;1.85;;;;;;;12.65;100.00;98478.56;1713551;83;21792;-71
2022/06/22 05:27:05;;;;;;;4.00;1.90;;;;;;;12.68;100.00;98480.17;1678593;85;21049;-71
2022/06/22 05:29:42;;;;;;;2.15;1.40;;;;;;;12.71;100.00;98479.45;1713608;83;21018;-70
2022/06/22 05:32:14;;;;;;;2.90;1.32;;;;;;;12.73;100.00;98483.32;1703171;83;21108;-70
2022/06/22 05:34:43;;;;;;;4.58;1.67;;;;;;;12.74;100.00;98475.75;1678847;85;21114;-70
2022/06/22 05:37:14;;;;;;;2.90;1.42;;;;;;;12.77;100.00;98475.06;1713164;83;21112;-72
2022/06/22 05:39:41;;;;;;;2.35;1.50;;;;;;;12.87;100.00;98481.84;1713109;82;21066;-71
2022/06/22 05:42:08;;;;;;;4.10;1.50;;;;;;;12.97;100.00;98478.04;1678495;85;21033;-70
2022/06/22 05:44:36;;;;;;;6.33;2.00;;;;;;;13.05;100.00;98478.34;1682268;85;21161;-72
2022/06/22 05:47:03;;;;;;;3.65;1.45;;;;;;;13.12;100.00;98480.89;1678199;85;21115;-71
2022/06/22 05:49:38;;;;;;;2.25;1.80;;;;;;;13.16;100.00;98478.39;1678138;85;21605;-70
2022/06/22 05:52:28;;;;;;;2.12;1.62;;;;;;;13.23;100.00;98473.02;1669833;85;21506;-70
2022/06/22 05:55:00;;;;;;;2.65;1.42;;;;;;;13.31;100.00;98468.98;1663581;85;21035;-72
2022/06/22 05:58:02;;;;;;;2.75;1.67;;;;;;;13.37;100.00;98471.17;1677350;85;21646;-71
2022/06/22 06:00:35;;;;;;;2.67;1.67;;;;;;;13.42;100.00;98472.99;1678114;85;21053;-71
2022/06/22 06:03:16;;;;;;;2.02;1.27;;;;;;;13.51;100.00;98476.27;1677798;85;21075;-74
2022/06/22 06:05:48;;;;;;;1.42;1.15;;;;;;;13.60;100.00;98472.92;1678044;85;21066;-71
2022/06/22 06:08:26;;;;;;;2.47;1.30;;;;;;;13.65;100.00;98476.55;1678160;85;22232;-72
2022/06/22 06:10:53;;;;;;;2.87;1.55;;;;;;;13.71;100.00;98475.22;1677998;85;21080;-72
2022/06/22 06:13:37;;;;;;;3.02;1.20;;;;;;;13.88;100.00;98484.05;1677745;85;21097;-72
2022/06/22 06:16:03;;;;;;;1.85;1.10;;;;;;;14.13;100.00;98478.19;1676880;85;21100;-72
2022/06/22 06:18:35;;;;;;;1.80;1.30;;;;;;;14.40;100.00;98487.07;1650820;85;21597;-71
2022/06/22 06:21:07;;;;;;;3.60;1.20;;;;;;;14.63;100.00;98483.95;1677918;85;21453;-71
2022/06/22 06:23:56;;;;;;;1.50;1.25;;;;;;;14.76;100.00;98483.33;1677833;85;21038;-72
2022/06/22 06:30:03;;;;;;;2.00;1.20;;;;;;;15.11;100.00;98486.25;1678099;85;21168;-71
2022/06/22 06:32:38;;;;;;;1.87;0.90;;;;;;;15.25;100.00;98490.42;1678003;85;21069;-71
2022/06/22 06:35:29;;;;;;;1.75;0.82;;;;;;;15.42;98.94;98491.21;1677067;85;21066;-74
2022/06/22 06:38:13;;;;;;;1.10;0.98;;;;;;;15.70;98.96;98485.78;1677138;85;21515;-72
2022/06/22 06:40:46;;;;;;;2.02;0.93;;;;;;;16.17;95.73;98480.53;1677482;85;21090;-71
2022/06/22 06:43:38;;;;;;;0.95;0.82;;;;;;;16.49;92.85;98482.55;1677708;85;21775;-71
2022/06/22 06:46:34;;;;;;;2.45;1.22;;;;;;;16.72;92.47;98485.00;1681305;84;21081;-70
2022/06/22 06:49:35;;;;;;;4.47;1.05;;;;;;;16.90;89.91;98480.73;1680535;85;21628;-71
2022/06/22 06:52:42;;;;;;;8.73;1.40;;;;;;;16.86;88.71;98485.14;1718942;83;21553;-75
2022/06/22 06:55:32;;;;;;;1.75;0.90;;;;;;;16.78;88.66;98488.45;1718502;83;21069;-72
2022/06/22 06:58:07;;;;;;;4.53;0.62;;;;;;;16.72;88.63;98496.96;1681559;85;21624;-72
2022/06/22 07:00:34;;;;;;;3.50;1.05;;;;;;;16.76;88.62;98509.02;1718325;83;21046;-72
2022/06/22 07:03:01;;;;;;;3.55;1.40;;;;;;;16.96;88.58;98493.99;1718359;83;21656;-73
2022/06/22 07:05:29;;;;;;;3.40;1.42;;;;;;;17.20;87.49;98496.25;1718142;83;21118;-72
2022/06/22 07:08:13;;;;;;;1.25;1.00;;;;;;;17.29;86.25;98500.73;1717946;83;21105;-72
2022/06/22 07:10:51;;;;;;;4.62;1.20;;;;;;;17.42;84.54;98496.48;1681179;85;21223;-71
2022/06/22 07:13:23;;;;;;;3.00;1.10;;;;;;;17.56;82.44;98497.38;1681048;84;21068;-73
2022/06/22 07:15:56;;;;;;;1.82;0.98;;;;;;;17.61;80.69;98504.95;1681132;83;21620;-72
2022/06/22 07:18:36;;;;;;;3.15;1.40;;;;;;;17.54;80.25;98503.83;1679265;85;21617;-72
2022/06/22 07:21:32;;;;;;;6.40;1.40;;;;;;;17.56;80.58;98507.20;1653813;86;21213;-72
2022/06/22 07:24:19;;;;;;;2.95;1.40;;;;;;;17.58;80.94;98514.06;1689618;84;21536;-69
2022/06/22 07:26:56;;;;;;;17.17;3.47;;;;;;;17.54;80.51;98509.16;1689104;84;21065;-69
2022/06/22 07:30:06;;;;;;;7.85;1.98;;;;;;;17.48;80.81;98517.69;1689335;84;21049;-70
2022/06/22 07:32:54;;;;;;;11.57;2.83;;;;;;;17.45;80.91;98517.98;1711667;82;21050;-71
2022/06/22 07:35:35;;;;;;;7.35;2.17;;;;;;;17.33;81.05;98514.62;1698914;82;21093;-70
2022/06/22 07:38:39;;;;;;;4.90;2.05;;;;;;;17.12;82.48;98513.41;1665149;85;21139;-68
2022/06/22 07:41:18;;;;;;;6.60;1.65;;;;;;;16.98;83.45;98519.96;1679715;85;21070;-68
2022/06/22 07:43:50;;;;;;;3.20;2.42;;;;;;;16.82;83.60;98521.80;1716527;82;21073;-68
2022/06/22 07:46:22;;;;;;;7.72;2.55;;;;;;;16.77;84.41;98523.97;1709486;83;21057;-67
2022/06/22 07:48:50;;;;;;;3.20;1.25;;;;;;;16.70;84.79;98522.83;1678034;85;21181;-68
2022/06/22 07:51:24;;;;;;;4.30;1.47;;;;;;;16.64;84.53;98524.72;1712519;83;21148;-69
2022/06/22 07:54:07;;;;;;;5.05;1.90;;;;;;;16.65;84.61;98521.08;1676836;85;21657;-68
2022/06/22 07:57:01;;;;;;;4.03;1.72;;;;;;;16.67;84.54;98527.10;1684590;84;21101;-68
2022/06/22 07:59:35;;;;;;;6.28;1.90;;;;;;;16.69;84.66;98527.81;1683889;84;21093;-67
2022/06/22 08:02:06;;;;;;;4.42;1.45;;;;;;;16.79;84.42;98535.34;1661348;85;21683;-69
2022/06/22 08:04:39;;;;;;;2.05;1.20;;;;;;;16.84;84.39;98542.92;1695002;83;21229;-67
2022/06/22 08:07:20;;;;;;;2.08;1.47;;;;;;;16.91;84.19;98539.61;1672701;85;21097;-68
2022/06/22 08:10:07;;;;;;;3.02;1.32;;;;;;;16.99;85.56;98543.73;1651450;85;21068;-68
2022/06/22 08:12:41;;;;;;;5.62;1.67;;;;;;;17.08;87.12;98542.58;1666219;85;21120;-69
2022/06/22 08:15:11;;;;;;;3.77;1.17;;;;;;;17.30;87.47;98543.67;1712989;82;21086;-68
2022/06/22 08:17:53;;;;;;;3.87;2.05;;;;;;;17.53;87.38;98546.91;1676928;85;21603;-70
2022/06/22 08:20:24;;;;;;;5.12;1.85;;;;;;;17.68;85.95;98550.48;1700612;83;21031;-68
2022/06/22 08:22:50;;;;;;;3.90;1.72;;;;;;;17.80;85.44;98543.52;1712348;83;21386;-68
2022/06/22 08:25:19;;;;;;;3.80;1.57;;;;;;;17.87;84.27;98545.16;1677057;85;21053;-68
2022/06/22 08:27:45;;;;;;;8.48;1.70;;;;;;;17.86;83.53;98547.48;1712613;82;21622;-68
2022/06/22 08:30:13;;;;;;;2.50;1.40;;;;;;;17.86;83.79;98549.31;1678462;85;21176;-70
2022/06/22 08:33:04;;;;;;;1.72;1.32;;;;;;;17.88;84.39;98548.69;1678425;85;21101;-68
2022/06/22 08:35:34;;;;;;;;;;;;;;;17.89;83.79;98554.34;1680671;85;21049;-70
2022/06/22 08:38:25;;;;;;;2.20;1.30;;;;;;;17.89;83.02;98553.02;1665944;86;20519;-68
2022/06/22 08:40:58;;;;;;;3.58;1.30;;;;;;;17.89;84.60;98548.53;1665735;85;21682;-69
2022/06/22 08:43:45;;;;;;;2.62;1.12;;;;;;;17.85;85.59;98544.95;1664651;85;21783;-68
2022/06/22 08:46:17;;;;;;;4.00;1.40;;;;;;;18.03;85.06;98558.73;1658939;85;21054;-69
2022/06/22 08:49:35;;;;;;;3.87;1.37;;;;;;;18.23;84.80;98549.39;1664111;86;21067;-69
2022/06/22 08:52:22;;;;;;;3.35;1.30;;;;;;;18.52;85.76;98555.98;1664329;85;21661;-69
2022/06/22 08:55:10;;;;;;;4.97;1.12;;;;;;;18.98;83.88;98552.92;1661737;86;21090;-68
2022/06/22 08:58:08;;;;;;;1.25;0.80;;;;;;;19.41;79.15;98555.38;1664858;84;21906;-68
2022/06/22 09:01:15;;;;;;;2.12;1.07;;;;;;;19.79;74.22;98548.59;1662310;86;21548;-69
2022/06/22 09:03:50;;;;;;;1.27;0.85;;;;;;;20.21;71.52;98548.74;1666709;80;21585;-73
2022/06/22 09:06:46;;;;;;;4.33;1.10;;;;;;;20.73;68.34;98547.41;1679842;84;21126;-72
2022/06/22 09:09:38;;;;;;;2.70;1.00;;;;;;;21.00;65.02;98541.48;1692884;83;21101;-72
2022/06/22 09:12:28;;;;;;;6.47;1.10;;;;;;;21.16;65.13;98548.72;1694417;83;21170;-73
2022/06/22 09:15:25;;;;;;;1.77;1.10;;;;;;;21.32;65.74;98545.25;1707738;83;21557;-74
2022/06/22 09:18:21;;;;;;;1.75;1.12;;;;;;;21.46;63.35;98545.98;1647374;83;21000;-71
2022/06/22 09:20:56;;;;;;;4.00;1.30;;;;;;;21.51;62.15;98552.17;1670136;81;21003;-74
2022/06/22 09:24:08;;;;;;;10.53;1.35;;;;;;;21.42;62.67;98547.33;1689204;83;21645;-72
2022/06/22 09:27:10;;;;;;;1.95;1.22;;;;;;;21.45;63.06;98552.34;1700202;83;21157;-76
2022/06/22 09:30:01;;;;;;;4.62;1.07;;;;;;;21.41;61.66;98556.86;1656921;86;21117;-74
2022/06/22 09:32:39;;;;;;;2.45;1.25;;;;;;;21.28;62.22;98550.59;1640336;87;21574;-74
2022/06/22 09:35:32;;;;;;;1.62;1.00;;;;;;;21.16;62.14;98554.94;1695134;81;21073;-72
2022/06/22 09:38:32;;;;;;;2.80;1.32;;;;;;;21.08;63.01;98560.76;1727265;82;21058;-72
2022/06/22 09:41:24;;;;;;;3.08;0.90;;;;;;;21.07;62.09;98558.59;1734141;82;21308;-71
2022/06/22 09:44:33;;;;;;;2.42;1.00;;;;;;;21.18;60.42;98563.30;1733832;82;21117;-71
2022/06/22 09:47:23;;;;;;;1.30;0.72;;;;;;;21.36;59.56;98554.64;1665680;85;21582;-72
2022/06/22 09:50:16;;;;;;;4.17;1.17;;;;;;;21.69;56.32;98562.75;1679550;85;21121;-72
2022/06/22 09:53:05;;;;;;;2.47;0.90;;;;;;;21.93;55.30;98547.20;1672364;84;21122;-73
2022/06/22 09:56:22;;;;;;;2.55;1.00;;;;;;;22.08;54.15;98547.34;1679756;85;21009;-72
2022/06/22 09:59:13;;;;;;;4.47;1.20;;;;;;;22.09;55.19;98550.38;1679287;85;21611;-73
2022/06/22 10:02:20;;;;;;;6.97;1.40;;;;;;;22.04;53.63;98543.32;1678878;85;22088;-74
2022/06/22 10:05:33;;;;;;;1.42;1.10;;;;;;;22.02;54.05;98541.31;1673508;84;21645;-71
2022/06/22 10:08:27;;;;;;;3.67;1.00;;;;;;;22.15;53.67;98547.00;1683768;85;21974;-72
2022/06/22 10:11:11;;;;;;;2.40;0.90;;;;;;;22.13;53.23;98549.02;1685866;85;21431;-72
2022/06/22 10:14:03;;;;;;;2.60;1.10;;;;;;;22.15;53.29;98549.69;1651119;86;21026;-72
2022/06/22 10:17:15;;;;;;;0.80;0.80;;;;;;;22.05;53.85;98549.03;1650622;86;21106;-72
2022/06/22 10:23:19;;;;;;;;;;;;;;;21.86;54.29;98551.56;1747556;82;21526;-68
2022/06/22 10:26:06;;;;;;;2.98;1.30;;;;;;;21.86;53.96;98561.77;1749783;80;21245;-69
2022/06/22 10:29:02;;;;;;;1.10;1.00;;;;;;;21.85;55.02;98557.91;1743387;82;21023;-67
2022/06/22 10:32:14;;;;;;;1.90;0.93;;;;;;;21.93;54.51;98554.73;1743140;82;21028;-67
2022/06/22 10:34:52;;;;;;;3.17;1.10;;;;;;;22.07;53.90;98559.92;1743087;82;21004;-66
2022/06/22 10:37:40;;;;;;;4.03;0.80;;;;;;;22.59;51.08;98555.52;1713103;79;21100;-72
2022/06/22 10:45:08;;;;;;;3.15;0.80;;;;;;;23.33;49.11;98566.45;1709116;83;21271;-73
2022/06/22 10:46:02;;;;;;;4.78;0.82;;;;;;;24.51;42.24;98552.64;1709094;84;21089;-73
2022/06/22 10:48:56;;;;;;;2.00;0.80;;;;;;;24.76;37.71;98558.58;1683425;83;21096;-73
2022/06/22 10:52:05;;;;;;;0.60;0.60;;;;;;;24.83;39.05;98562.20;1687964;79;21074;-73
2022/06/22 10:54:57;;;;;;;3.65;0.70;;;;;;;24.84;38.31;98561.16;1646296;86;21181;-72
2022/06/22 10:57:56;;;;;;;1.02;0.57;;;;;;;24.83;37.87;98556.81;1639948;86;21069;-73
2022/06/22 11:01:01;;;;;;;4.62;0.85;;;;;;;24.95;37.35;98564.42;1640039;86;21555;-77
2022/06/22 11:04:12;;;;;;;1.90;0.90;;;;;;;25.17;36.50;98560.77;1639584;87;21158;-76
2022/06/22 11:07:06;;;;;;;7.83;0.95;;;;;;;25.05;36.83;98567.16;1661767;80;22250;-72
2022/06/22 11:09:51;;;;;;;4.37;0.80;;;;;;;24.77;37.17;98568.31;1708644;83;21182;-71
2022/06/22 11:12:45;;;;;;;3.98;0.80;;;;;;;24.33;37.29;98578.50;1682257;83;21075;-72
2022/06/22 11:15:56;;;;;;;8.60;0.85;;;;;;;23.68;38.85;98585.23;1707739;84;21022;-72
2022/06/22 11:18:38;;;;;;;3.67;0.80;;;;;;;23.07;40.69;98591.76;1707411;84;21499;-71
2022/06/22 11:21:32;;;;;;;5.30;0.93;;;;;;;22.61;42.20;98588.86;1644504;80;21046;-72
2022/06/22 11:24:47;;;;;;;3.65;0.80;;;;;;;22.28;43.75;98590.27;1720911;82;21275;-70
2022/06/22 11:31:00;;;;;;;1.05;0.80;;;;;;;22.35;43.90;98597.13;1708163;84;21561;-70
2022/06/22 11:33:56;;;;;;;4.20;0.95;;;;;;;22.54;43.32;98593.23;1708282;84;21186;-71
2022/06/22 11:36:53;;;;;;;4.30;0.90;;;;;;;22.71;43.20;98597.57;1676276;85;21057;-71
2022/06/22 11:39:58;;;;;;;1.25;0.85;;;;;;;22.78;42.62;98590.50;1688462;83;21219;-70
2022/06/22 11:42:46;;;;;;;5.00;0.88;;;;;;;22.80;42.43;98592.52;1738012;81;21050;-72
2022/06/22 11:45:54;;;;;;;4.35;1.40;;;;;;;22.97;42.81;98591.11;1738154;81;21070;-70
2022/06/22 11:48:57;;;;;;;5.00;1.37;;;;;;;23.22;43.18;98595.39;1766613;80;21558;-70
2022/06/22 11:51:30;;;;;;;2.25;1.00;;;;;;;23.83;42.51;98597.41;1754350;80;21117;-71
2022/06/22 11:54:40;;;;;;;1.17;0.78;;;;;;;24.41;41.84;98589.20;1762929;80;21247;-70
2022/06/22 11:57:47;;;;;;;2.37;0.98;;;;;;;24.76;40.10;98588.72;1735626;82;21018;-72
2022/06/22 12:00:45;;;;;;;1.10;0.82;;;;;;;24.86;39.64;98588.73;1735350;82;21122;-71
2022/06/22 12:03:39;;;;;;;1.15;0.50;;;;;;;24.78;39.30;98588.84;1735180;82;21068;-72
2022/06/22 12:06:44;;;;;;;2.92;0.80;;;;;;;24.41;39.42;98590.55;1688565;80;21547;-79
2022/06/22 12:09:50;;;;;;;4.28;0.68;;;;;;;24.18;40.09;98589.73;1696498;83;21394;-78
2022/06/22 12:12:56;;;;;;;2.20;0.70;;;;;;;24.41;39.02;98595.93;1721832;83;21047;-77
2022/06/22 12:16:03;;;;;;;3.42;0.70;;;;;;;24.32;36.53;98594.33;1694841;83;21036;-77
2022/06/22 12:18:52;;;;;;;1.47;0.70;;;;;;;24.20;38.62;98597.97;1722193;83;20989;-77
2022/06/22 12:21:30;;;;;;;4.70;0.80;;;;;;;24.19;37.79;98606.22;1723371;80;21093;-73
2022/06/22 12:24:11;;;;;;;1.05;0.70;;;;;;;23.94;38.05;98607.74;1742509;81;21204;-74
2022/06/22 12:26:57;;;;;;;;;;;;;;;23.65;38.73;98622.70;1748894;80;21529;-74
2022/06/22 12:30:03;;;;;;;0.80;0.50;;;;;;;23.12;37.58;98609.55;1732936;82;20163;-72
2022/06/22 12:33:03;;;;;;;3.70;0.90;;;;;;;22.82;38.75;98610.62;1684980;85;21069;-73
2022/06/22 12:36:19;;;;;;;4.37;0.80;;;;;;;22.95;40.01;98614.60;1715427;83;21061;-73
2022/06/22 12:38:56;;;;;;;1.75;0.80;;;;;;;23.09;39.84;98619.78;1644055;86;21278;-75
2022/06/22 12:41:37;;;;;;;1.67;0.80;;;;;;;23.21;38.75;98619.25;1655143;85;21099;-75
2022/06/22 12:44:30;;;;;;;3.05;0.93;;;;;;;23.14;37.02;98624.13;1652261;86;21062;-76
2022/06/22 12:47:20;;;;;;;2.62;0.88;;;;;;;22.79;37.22;98632.42;1631554;85;21107;-77
2022/06/22 12:50:24;;;;;;;2.37;0.50;;;;;;;22.24;39.08;98637.70;1644477;85;21571;-78
2022/06/22 12:52:56;;;;;;;2.62;0.80;;;;;;;22.08;39.03;98631.79;1656815;84;22157;-72
2022/06/22 12:55:29;;;;;;;1.22;0.70;;;;;;;21.90;38.88;98644.00;1683989;85;21109;-71
2022/06/22 12:58:22;;;;;;;3.72;0.50;;;;;;;21.68;39.54;98646.81;1684828;84;21077;-71
2022/06/22 13:00:49;;;;;;;1.25;0.60;;;;;;;21.45;38.89;98646.08;1655730;86;21101;-70
2022/06/22 13:03:20;;;;;;;2.60;0.75;;;;;;;21.30;40.54;98653.01;1655752;86;21574;-70